Time;durP1;ratioP1;P1;durP2;ratioP2;P2;SDS_P1;SDS_P2;PMS_P1;PMS_P2;Temp;Humidity;BMP_temperature;BMP_pressure;BME280_temperature;BME280_humidity;BME280_pressure;Samples;Min_cycle;Max_cycle;Signal;HPM_P1;HPM_P2
2023/08/05 00:01:10;;;;;;;7.82;4.45;;;;;;;16.16;86.90;101470.28;3616771;39;20326;-64
2023/08/05 00:03:36;;;;;;;9.63;4.90;;;;;;;16.16;86.67;101471.16;3619259;39;20389;-64
2023/08/05 00:06:02;;;;;;;8.65;5.05;;;;;;;16.16;86.93;101460.31;3615271;39;20047;-64
2023/08/05 00:08:27;;;;;;;5.43;4.93;;;;;;;16.18;86.81;101457.50;3615787;39;20043;-66
2023/08/05 00:10:53;;;;;;;4.85;4.32;;;;;;;16.20;86.65;101452.78;3613389;39;20066;-64
2023/08/05 00:13:19;;;;;;;6.95;4.60;;;;;;;16.23;87.22;101450.72;3607548;39;20110;-65
2023/08/05 00:15:45;;;;;;;9.13;4.97;;;;;;;16.24;86.48;101451.59;3614800;39;20321;-64
2023/08/05 00:18:11;;;;;;;8.02;5.15;;;;;;;16.19;86.55;101438.38;3615984;39;20055;-64
2023/08/05 00:20:36;;;;;;;6.50;5.40;;;;;;;16.22;86.92;101450.84;3615202;39;20050;-64
2023/08/05 00:23:03;;;;;;;7.20;4.95;;;;;;;16.22;87.09;101443.56;3613503;39;20405;-64
2023/08/05 00:25:28;;;;;;;8.82;4.65;;;;;;;16.23;86.50;101447.13;3615224;39;20061;-64
2023/08/05 00:27:54;;;;;;;6.35;4.97;;;;;;;16.23;86.55;101445.28;3613386;39;20047;-64
2023/08/05 00:30:20;;;;;;;5.55;4.57;;;;;;;16.22;86.85;101442.69;3608352;39;20058;-64
2023/08/05 00:32:45;;;;;;;9.07;5.07;;;;;;;16.23;87.28;101439.00;3617894;39;20315;-64
2023/08/05 00:35:11;;;;;;;5.80;4.85;;;;;;;16.02;87.16;101412.53;3616150;39;20059;-66
2023/08/05 00:37:37;;;;;;;6.43;5.15;;;;;;;16.18;87.68;101442.06;3622712;39;20085;-66
2023/08/05 00:40:05;;;;;;;7.38;5.13;;;;;;;16.05;86.96;101418.69;3613869;39;20108;-64
2023/08/05 00:42:31;;;;;;;8.10;4.78;;;;;;;16.10;87.84;101438.19;3614295;39;20058;-64
2023/08/05 00:44:56;;;;;;;7.00;4.75;;;;;;;16.11;87.24;101434.50;3615601;39;20087;-65
2023/08/05 00:47:23;;;;;;;6.63;5.28;;;;;;;16.13;87.33;101437.97;3614803;39;20055;-64
2023/08/05 00:49:56;;;;;;;5.40;4.70;;;;;;;16.14;87.62;101426.13;3617658;39;20385;-64
2023/08/05 00:52:23;;;;;;;;;;;;;;;16.12;88.57;101430.81;3618852;39;20066;-65
2023/08/05 00:54:50;;;;;;;5.22;4.72;;;;;;;16.10;88.08;101422.78;3613852;39;19979;-65
2023/08/05 00:57:19;;;;;;;8.25;4.85;;;;;;;16.06;88.30;101426.72;3614690;39;20098;-65
2023/08/05 00:59:44;;;;;;;5.95;5.22;;;;;;;15.47;87.72;101326.31;3606744;39;20108;-64
2023/08/05 01:02:10;;;;;;;10.85;6.10;;;;;;;16.02;87.90;101420.66;3614575;39;20063;-65
2023/08/05 01:04:37;;;;;;;6.70;5.38;;;;;;;16.01;87.05;101418.06;3617002;39;20077;-65
2023/08/05 01:07:04;;;;;;;7.80;5.93;;;;;;;15.99;87.79;101420.91;3613845;39;20124;-65
2023/08/05 01:09:30;;;;;;;7.57;6.00;;;;;;;16.00;86.87;101419.03;3618052;39;20071;-65
2023/08/05 01:11:56;;;;;;;14.85;6.05;;;;;;;16.00;87.30;101413.63;3607737;39;20053;-65
2023/08/05 01:14:22;;;;;;;7.18;5.70;;;;;;;15.99;87.30;101404.63;3620459;39;20234;-65
2023/08/05 01:16:47;;;;;;;8.52;5.97;;;;;;;15.98;87.46;101405.63;3619212;39;20052;-65
2023/08/05 01:19:20;;;;;;;9.70;6.50;;;;;;;15.97;87.75;101412.00;3618408;39;20050;-65
2023/08/05 01:22:19;;;;;;;8.73;6.40;;;;;;;15.94;88.34;101395.97;3618663;39;20077;-65
2023/08/05 01:25:20;;;;;;;9.95;6.32;;;;;;;15.94;88.74;101395.97;3617693;39;20058;-65
2023/08/05 01:27:47;;;;;;;8.77;6.25;;;;;;;15.96;88.05;101398.56;3616904;39;20078;-64
2023/08/05 01:30:12;;;;;;;7.55;6.22;;;;;;;15.95;88.86;101403.13;3619016;39;20085;-65
2023/08/05 01:32:40;;;;;;;8.95;6.28;;;;;;;15.97;88.58;101408.44;3617907;39;20381;-65
2023/08/05 01:35:09;;;;;;;9.68;6.63;;;;;;;15.94;87.71;101401.38;3615154;39;20057;-65
2023/08/05 01:37:35;;;;;;;9.68;6.63;;;;;;;15.96;88.04;101394.00;3618449;39;20067;-65
2023/08/05 01:40:02;;;;;;;11.70;6.72;;;;;;;15.92;88.02;101395.22;3616467;39;20043;-65
2023/08/05 01:42:28;;;;;;;8.90;6.40;;;;;;;15.89;88.65;101398.19;3616608;39;20046;-64
2023/08/05 01:44:53;;;;;;;8.05;6.53;;;;;;;15.85;88.48;101396.66;3618547;39;20053;-64
2023/08/05 01:47:19;;;;;;;8.38;6.32;;;;;;;15.83;88.89;101404.06;3620767;39;20284;-65
2023/08/05 01:49:45;;;;;;;7.07;6.22;;;;;;;15.80;89.25;101398.84;3617800;39;20046;-64
2023/08/05 01:52:10;;;;;;;8.70;7.05;;;;;;;15.77;89.02;101405.38;3617169;39;20127;-64
2023/08/05 01:54:36;;;;;;;8.45;6.78;;;;;;;15.69;88.92;101398.78;3619061;39;20131;-64
2023/08/05 01:57:02;;;;;;;9.73;6.80;;;;;;;15.68;89.73;101395.22;3613675;39;20066;-65
2023/08/05 01:59:27;;;;;;;11.93;6.93;;;;;;;15.66;90.31;101397.13;3618840;39;20054;-64
2023/08/05 02:01:53;;;;;;;11.85;6.88;;;;;;;15.64;90.76;101399.09;3619138;39;20057;-64
2023/08/05 02:04:18;;;;;;;11.25;7.20;;;;;;;15.24;89.71;101333.44;3615066;39;20066;-65
2023/08/05 02:06:44;;;;;;;8.27;6.50;;;;;;;15.56;90.35;101386.09;3605208;39;20304;-65
2023/08/05 02:09:10;;;;;;;7.25;6.30;;;;;;;15.58;89.97;101398.69;3618837;39;20063;-65
2023/08/05 02:11:35;;;;;;;8.27;7.07;;;;;;;15.54;90.46;101409.75;3618720;39;20067;-64
2023/08/05 02:14:01;;;;;;;8.48;7.05;;;;;;;15.49;89.83;101401.09;3619643;39;20058;-65
2023/08/05 02:16:27;;;;;;;8.88;6.85;;;;;;;15.43;90.23;101398.81;3616753;39;20054;-65
2023/08/05 02:18:53;;;;;;;9.18;7.63;;;;;;;15.37;91.39;101396.56;3612644;39;20093;-65
2023/08/05 02:21:18;;;;;;;9.18;7.55;;;;;;;15.35;90.85;101390.41;3617100;39;20046;-65
2023/08/05 02:23:44;;;;;;;8.50;7.60;;;;;;;15.32;91.58;101396.06;3616002;39;20300;-65
2023/08/05 02:26:10;;;;;;;8.30;7.00;;;;;;;15.30;90.92;101398.00;3606568;39;20322;-65
2023/08/05 02:28:36;;;;;;;8.48;7.53;;;;;;;15.26;91.05;101394.66;3618511;39;20089;-65
2023/08/05 02:31:02;;;;;;;9.18;8.13;;;;;;;15.23;91.59;101385.88;3616628;39;20066;-65
2023/08/05 02:33:28;;;;;;;9.20;7.78;;;;;;;15.23;91.83;101388.59;3616807;39;20065;-65
2023/08/05 02:35:58;;;;;;;11.68;8.00;;;;;;;15.21;91.51;101390.53;3615136;39;20404;-65
2023/08/05 02:38:24;;;;;;;10.77;8.32;;;;;;;15.19;91.56;101374.41;3617127;39;20053;-65
2023/08/05 02:40:49;;;;;;;8.85;7.93;;;;;;;15.14;91.01;101373.00;3615225;39;20101;-65
2023/08/05 02:43:15;;;;;;;9.00;8.05;;;;;;;15.11;91.59;101376.78;3617669;39;20085;-65
2023/08/05 02:45:41;;;;;;;10.35;8.30;;;;;;;14.93;92.40;101354.59;3616912;39;20266;-65
2023/08/05 02:48:07;;;;;;;8.23;7.43;;;;;;;15.08;92.15;101374.31;3618453;39;20501;-65
2023/08/05 02:50:33;;;;;;;12.93;8.43;;;;;;;14.96;92.69;101354.38;3614752;39;20356;-65
2023/08/05 02:52:58;;;;;;;11.23;8.77;;;;;;;15.02;92.12;101366.63;3616992;39;20066;-65
2023/08/05 02:55:24;;;;;;;13.20;9.23;;;;;;;15.00;93.03;101361.34;3615181;39;20055;-64
2023/08/05 02:57:50;;;;;;;14.57;9.20;;;;;;;15.01;93.25;101360.34;3613885;39;20051;-65
2023/08/05 03:00:15;;;;;;;13.15;8.93;;;;;;;15.01;92.68;101357.63;3607858;39;20162;-65
2023/08/05 03:02:41;;;;;;;11.68;8.63;;;;;;;15.02;92.64;101364.78;3617994;39;20050;-65
2023/08/05 03:05:07;;;;;;;10.85;9.00;;;;;;;15.00;93.08;101372.16;3617733;39;20062;-65
2023/08/05 03:07:32;;;;;;;13.10;9.15;;;;;;;14.95;92.80;101355.38;3615322;39;20066;-66
2023/08/05 03:09:58;;;;;;;11.55;8.95;;;;;;;14.99;92.75;101359.56;3614088;39;20057;-65
2023/08/05 03:12:24;;;;;;;12.07;9.70;;;;;;;14.98;92.92;101351.56;3615749;39;20050;-66
2023/08/05 03:14:51;;;;;;;10.02;9.07;;;;;;;14.95;93.08;101339.13;3614826;39;20061;-66
2023/08/05 03:17:17;;;;;;;12.98;8.75;;;;;;;14.93;93.09;101342.91;3617096;39;20385;-65
2023/08/05 03:19:43;;;;;;;11.63;8.68;;;;;;;14.92;93.52;101338.47;3612019;39;20065;-65
2023/08/05 03:22:08;;;;;;;12.55;9.50;;;;;;;14.91;93.51;101336.75;3618244;39;20128;-65
2023/08/05 03:24:34;;;;;;;12.63;9.15;;;;;;;14.90;93.32;101338.56;3618681;39;20228;-66
2023/08/05 03:26:59;;;;;;;11.30;9.40;;;;;;;14.74;93.27;101310.88;3613635;39;20381;-66
2023/08/05 03:29:25;;;;;;;11.10;9.52;;;;;;;14.84;93.38;101333.59;3619961;39;20053;-66
2023/08/05 03:31:51;;;;;;;10.68;9.57;;;;;;;14.82;94.01;101332.88;3615161;39;20063;-65
2023/08/05 03:34:18;;;;;;;13.40;9.45;;;;;;;14.81;93.59;101333.81;3616536;39;20433;-66
2023/08/05 03:36:43;;;;;;;11.38;9.63;;;;;;;14.79;93.50;101331.25;3614697;39;20050;-64
2023/08/05 03:39:09;;;;;;;10.63;9.50;;;;;;;14.74;94.34;101329.81;3615807;39;20572;-65
2023/08/05 03:41:35;;;;;;;10.38;9.32;;;;;;;14.72;94.46;101329.09;3615039;39;20053;-65
2023/08/05 03:44:03;;;;;;;10.63;9.55;;;;;;;14.68;94.07;101306.78;3613908;39;20427;-65
2023/08/05 03:46:29;;;;;;;11.18;9.98;;;;;;;14.71;94.07;101311.97;3614254;39;20174;-65
2023/08/05 03:48:55;;;;;;;15.93;9.70;;;;;;;14.69;94.02;101303.09;3611539;39;20377;-65
2023/08/05 03:51:21;;;;;;;10.70;9.60;;;;;;;14.68;94.24;101305.91;3614526;39;20058;-64
2023/08/05 03:53:47;;;;;;;11.88;9.88;;;;;;;14.65;94.04;101301.56;3616561;39;20153;-65
2023/08/05 03:56:13;;;;;;;13.30;10.68;;;;;;;14.63;94.01;101298.13;3615611;39;20351;-65
2023/08/05 03:58:39;;;;;;;12.70;10.93;;;;;;;14.65;94.78;101295.31;3614074;39;20390;-65
2023/08/05 04:01:06;;;;;;;12.23;11.02;;;;;;;14.66;95.19;101297.91;3613885;39;20132;-65
2023/08/05 04:03:32;;;;;;;15.40;11.07;;;;;;;14.68;94.73;101293.25;3613168;39;20039;-65
2023/08/05 04:05:58;;;;;;;12.63;10.25;;;;;;;14.71;94.61;101292.16;3614055;39;20050;-65
2023/08/05 04:08:26;;;;;;;14.98;10.90;;;;;;;14.67;95.04;101293.38;3613181;39;20057;-65
2023/08/05 04:10:51;;;;;;;11.70;10.57;;;;;;;14.65;94.65;101281.78;3615507;39;20061;-65
2023/08/05 04:13:17;;;;;;;12.43;10.05;;;;;;;14.68;94.20;101289.66;3612973;39;20063;-65
2023/08/05 04:15:45;;;;;;;13.57;10.82;;;;;;;14.66;94.40;101286.22;3613481;39;20127;-66
2023/08/05 04:18:10;;;;;;;11.68;10.38;;;;;;;14.69;94.81;101291.44;3613599;39;20218;-66
2023/08/05 04:20:38;;;;;;;11.50;9.45;;;;;;;14.71;94.43;101300.28;3611465;39;20066;-66
2023/08/05 04:23:05;;;;;;;13.07;10.57;;;;;;;14.75;94.78;101285.56;3612208;39;20385;-66
2023/08/05 04:25:32;;;;;;;11.80;10.60;;;;;;;14.77;94.31;101275.47;3618150;39;20373;-67
2023/08/05 04:27:58;;;;;;;12.00;10.40;;;;;;;14.53;93.92;101219.47;3613898;39;20050;-66
2023/08/05 04:30:24;;;;;;;12.57;10.68;;;;;;;14.78;94.43;101255.56;3617427;39;20050;-66
2023/08/05 04:32:50;;;;;;;12.95;10.52;;;;;;;14.70;94.00;101241.72;3617490;39;20061;-66
2023/08/05 04:35:16;;;;;;;11.98;10.07;;;;;;;14.77;94.52;101245.72;3617025;39;20059;-66
2023/08/05 04:37:41;;;;;;;13.02;10.23;;;;;;;14.78;93.98;101252.84;3614348;39;20053;-67
2023/08/05 04:40:08;;;;;;;12.93;10.43;;;;;;;14.77;94.12;101259.25;3607736;39;20050;-67
2023/08/05 04:42:33;;;;;;;12.57;10.07;;;;;;;14.78;94.30;101255.56;3617160;39;20504;-67
2023/08/05 04:45:00;;;;;;;12.48;10.63;;;;;;;14.78;94.16;101242.91;3615512;39;20055;-68
2023/08/05 04:47:26;;;;;;;11.38;10.18;;;;;;;14.78;93.81;101233.91;3617035;39;20039;-67
2023/08/05 04:49:51;;;;;;;11.57;10.23;;;;;;;14.72;94.44;101220.84;3613140;39;20054;-67
2023/08/05 04:52:17;;;;;;;11.35;9.63;;;;;;;14.84;93.73;101236.16;3617211;39;20408;-68
2023/08/05 04:54:44;;;;;;;11.50;10.00;;;;;;;14.83;93.60;101247.97;3615663;39;20138;-66
2023/08/05 04:57:10;;;;;;;11.73;9.95;;;;;;;14.84;94.03;101238.88;3617706;39;20422;-66
2023/08/05 04:59:36;;;;;;;13.25;9.63;;;;;;;14.87;93.97;101241.34;3616887;39;20046;-67
2023/08/05 05:02:02;;;;;;;11.27;9.73;;;;;;;14.88;93.27;101248.50;3621657;39;20436;-67
2023/08/05 05:04:28;;;;;;;11.00;9.80;;;;;;;14.89;93.38;101238.53;3616974;39;20042;-67
2023/08/05 05:06:54;;;;;;;12.45;10.32;;;;;;;14.90;92.92;101245.69;3614941;39;20384;-67
2023/08/05 05:09:19;;;;;;;14.45;9.80;;;;;;;14.89;93.31;101252.94;3615472;39;20054;-66
2023/08/05 05:11:45;;;;;;;11.90;10.77;;;;;;;14.87;93.55;101235.94;3618114;39;20061;-66
2023/08/05 05:14:11;;;;;;;14.05;10.25;;;;;;;14.78;93.51;101225.78;3618318;39;20049;-66
2023/08/05 05:16:36;;;;;;;13.10;10.50;;;;;;;14.86;93.80;101236.91;3622818;39;20057;-67
2023/08/05 05:19:02;;;;;;;12.90;10.27;;;;;;;14.90;93.05;101234.84;3616405;39;20305;-67
2023/08/05 05:21:27;;;;;;;14.40;10.68;;;;;;;14.89;93.75;101228.56;3617176;39;20381;-64
2023/08/05 05:23:53;;;;;;;11.70;10.27;;;;;;;14.92;92.68;101227.50;3616452;39;20102;-67
2023/08/05 05:26:19;;;;;;;11.25;10.02;;;;;;;14.90;93.14;101224.03;3617728;39;20058;-66
2023/08/05 05:28:44;;;;;;;13.13;11.00;;;;;;;14.94;93.51;101231.81;3615427;39;20398;-66
2023/08/05 05:31:10;;;;;;;14.20;10.55;;;;;;;14.97;94.20;101226.19;3605755;39;20206;-66
2023/08/05 05:33:36;;;;;;;11.88;10.15;;;;;;;14.99;92.96;101229.63;3615016;39;20093;-67
2023/08/05 05:36:02;;;;;;;11.93;10.63;;;;;;;15.04;94.08;101222.03;3617315;39;20058;-67
2023/08/05 05:38:27;;;;;;;13.10;10.90;;;;;;;15.13;93.41;101228.63;3612140;39;20116;-66
2023/08/05 05:40:57;;;;;;;13.30;10.40;;;;;;;15.21;93.41;101217.19;3611768;39;20131;-65
2023/08/05 05:43:23;;;;;;;11.73;10.20;;;;;;;15.19;92.83;101203.78;3615496;39;20058;-66
2023/08/05 05:45:53;;;;;;;12.48;10.23;;;;;;;15.33;93.07;101213.56;3616673;39;20290;-66
2023/08/05 05:48:19;;;;;;;12.48;10.07;;;;;;;15.39;92.92;101217.66;3613971;39;20357;-65
2023/08/05 05:50:44;;;;;;;13.15;10.10;;;;;;;15.45;92.38;101219.91;3613674;39;20062;-66
2023/08/05 05:53:13;;;;;;;12.05;10.38;;;;;;;15.52;92.37;101222.03;3612799;39;20124;-66
2023/08/05 05:55:45;;;;;;;12.52;10.80;;;;;;;15.56;91.76;101217.22;3611530;39;20108;-65
2023/08/05 05:58:11;;;;;;;14.02;10.52;;;;;;;15.64;92.27;101220.22;3612549;39;20137;-66
2023/08/05 06:00:39;;;;;;;10.68;9.57;;;;;;;15.69;91.33;101217.19;3614034;39;20054;-66
2023/08/05 06:03:08;;;;;;;11.63;9.68;;;;;;;15.75;91.03;101216.72;3612013;39;20054;-66
2023/08/05 06:05:33;;;;;;;10.32;9.27;;;;;;;15.80;90.96;101213.66;3614270;39;20347;-66
2023/08/05 06:07:59;;;;;;;12.13;9.65;;;;;;;15.87;90.78;101214.91;3610388;39;20122;-66
2023/08/05 06:10:25;;;;;;;10.63;9.27;;;;;;;15.96;90.20;101215.03;3612283;39;20055;-66
2023/08/05 06:12:50;;;;;;;10.73;8.65;;;;;;;16.04;90.48;101208.16;3613088;39;20066;-67
2023/08/05 06:15:16;;;;;;;10.15;8.75;;;;;;;16.10;90.01;101208.53;3614533;39;20515;-65
2023/08/05 06:17:42;;;;;;;10.73;9.57;;;;;;;16.18;91.21;101207.94;3616333;39;20046;-66
2023/08/05 06:20:08;;;;;;;10.57;8.52;;;;;;;16.11;90.53;101180.44;3611514;39;20042;-66
2023/08/05 06:22:34;;;;;;;9.60;7.95;;;;;;;16.36;90.41;101198.31;3614614;39;20050;-66
2023/08/05 06:25:00;;;;;;;10.38;8.02;;;;;;;16.45;89.14;101211.13;3613143;39;20110;-66
2023/08/05 06:27:26;;;;;;;9.35;7.43;;;;;;;16.46;88.97;101196.59;3617431;39;20134;-65
2023/08/05 06:29:52;;;;;;;9.07;7.50;;;;;;;16.53;87.77;101196.97;3615141;39;20070;-65
2023/08/05 06:32:17;;;;;;;8.40;7.00;;;;;;;16.58;88.02;101202.00;3611508;39;20074;-65
2023/08/05 06:34:43;;;;;;;8.63;7.18;;;;;;;16.64;87.78;101198.78;3614365;39;20776;-64
2023/08/05 06:37:09;;;;;;;8.25;6.55;;;;;;;16.19;86.67;101110.16;3613235;39;20057;-64
2023/08/05 06:39:35;;;;;;;9.80;7.00;;;;;;;16.73;87.11;101194.47;3615383;39;20058;-65
2023/08/05 06:42:01;;;;;;;8.30;6.53;;;;;;;16.81;87.08;101201.03;3617510;39;20117;-65
2023/08/05 06:44:26;;;;;;;9.77;6.28;;;;;;;16.93;86.18;101193.72;3613375;39;20450;-65
2023/08/05 06:46:52;;;;;;;6.85;6.07;;;;;;;16.73;85.28;101160.03;3611010;39;20153;-65
2023/08/05 06:49:17;;;;;;;8.45;7.07;;;;;;;16.91;85.43;101193.84;3613895;39;20093;-65
2023/08/05 06:51:44;;;;;;;9.23;6.97;;;;;;;16.93;84.39;101194.56;3613237;39;20058;-65
2023/08/05 06:54:11;;;;;;;8.45;6.70;;;;;;;17.01;85.62;101195.81;3616866;39;20283;-65
2023/08/05 06:56:37;;;;;;;7.80;6.93;;;;;;;17.10;84.97;101184.19;3617935;39;20059;-65
2023/08/05 06:59:03;;;;;;;8.85;7.25;;;;;;;17.16;84.18;101176.38;3616240;39;20490;-65
2023/08/05 07:01:29;;;;;;;8.57;7.05;;;;;;;17.26;82.87;101173.75;3604685;39;20058;-64
2023/08/05 07:03:55;;;;;;;7.55;6.45;;;;;;;17.39;83.27;101177.16;3618175;39;20075;-64
2023/08/05 07:06:20;;;;;;;7.45;6.57;;;;;;;17.54;81.59;101171.41;3606736;39;20119;-65
2023/08/05 07:08:46;;;;;;;7.35;6.22;;;;;;;17.61;81.93;101168.00;3615432;39;20043;-65
2023/08/05 07:11:12;;;;;;;8.98;5.70;;;;;;;17.64;80.08;101162.31;3612365;39;20085;-64
2023/08/05 07:13:37;;;;;;;6.40;5.55;;;;;;;17.73;79.69;101174.25;3617053;39;20065;-65
2023/08/05 07:16:04;;;;;;;8.77;4.88;;;;;;;17.81;78.95;101169.03;3613377;39;20408;-65
2023/08/05 07:18:30;;;;;;;6.25;4.82;;;;;;;17.31;78.90;101073.66;3614425;39;20050;-65
2023/08/05 07:20:56;;;;;;;6.38;4.90;;;;;;;17.95;79.10;101166.97;3616280;39;20146;-65
2023/08/05 07:23:22;;;;;;;6.30;4.70;;;;;;;18.09;79.10;101174.78;3610653;39;20117;-64
2023/08/05 07:25:47;;;;;;;5.78;5.28;;;;;;;18.12;78.69;101163.63;3616143;39;20053;-65
2023/08/05 07:28:13;;;;;;;8.30;5.65;;;;;;;18.21;77.17;101171.00;3616835;39;20334;-64
2023/08/05 07:30:39;;;;;;;6.47;5.25;;;;;;;18.09;76.91;101156.59;3611912;39;20381;-65
2023/08/05 07:33:07;;;;;;;6.22;5.07;;;;;;;18.24;77.86;101181.59;3615240;39;20050;-65
2023/08/05 07:35:33;;;;;;;4.75;4.30;;;;;;;18.36;77.15;101173.31;3616029;39;20054;-65
2023/08/05 07:38:03;;;;;;;5.60;3.90;;;;;;;18.43;76.64;101169.09;3615952;39;20077;-65
2023/08/05 07:40:31;;;;;;;5.55;4.20;;;;;;;18.52;76.13;101166.41;3612283;39;20146;-65
2023/08/05 07:43:00;;;;;;;5.40;4.72;;;;;;;18.59;75.23;101163.97;3616292;39;20046;-64
2023/08/05 07:45:26;;;;;;;7.28;4.97;;;;;;;18.23;74.98;101081.03;3612825;39;20132;-64
2023/08/05 07:47:53;;;;;;;5.35;4.00;;;;;;;18.77;75.78;101156.00;3613362;39;20072;-65
2023/08/05 07:50:22;;;;;;;5.32;3.88;;;;;;;18.86;75.68;101144.28;3603662;39;20063;-64
2023/08/05 07:52:51;;;;;;;4.53;3.90;;;;;;;19.04;75.53;101146.31;3615486;39;20120;-64
2023/08/05 07:55:16;;;;;;;4.40;3.72;;;;;;;19.18;74.55;101143.16;3612873;39;20061;-64
2023/08/05 07:57:42;;;;;;;4.35;3.60;;;;;;;19.34;74.48;101145.31;3613206;39;20063;-66
2023/08/05 08:00:10;;;;;;;5.88;3.65;;;;;;;19.48;73.17;101139.44;3613291;39;20046;-65
2023/08/05 08:02:35;;;;;;;3.90;3.45;;;;;;;19.73;70.70;101126.19;3613288;39;20055;-65
2023/08/05 08:05:04;;;;;;;4.90;3.50;;;;;;;19.86;68.58;101132.22;3616994;39;20106;-65
2023/08/05 08:07:31;;;;;;;4.32;3.38;;;;;;;19.87;68.63;101123.03;3616424;39;20324;-65
2023/08/05 08:09:57;;;;;;;5.07;3.45;;;;;;;19.90;67.81;101123.59;3616288;39;20373;-65
2023/08/05 08:12:23;;;;;;;4.43;3.35;;;;;;;19.85;67.58;101125.91;3602216;39;20070;-65
2023/08/05 08:14:48;;;;;;;2.90;2.70;;;;;;;19.85;67.92;101114.13;3616479;39;20058;-65
2023/08/05 08:17:16;;;;;;;2.92;2.60;;;;;;;19.78;67.93;101119.31;3616898;39;20119;-65
2023/08/05 08:19:42;;;;;;;2.83;2.40;;;;;;;19.85;68.35;101119.56;3616458;39;20130;-65
2023/08/05 08:22:08;;;;;;;3.53;2.47;;;;;;;19.83;67.79;101110.69;3604473;39;20282;-65
2023/08/05 08:24:34;;;;;;;3.20;2.22;;;;;;;19.81;67.94;101113.56;3605533;39;20077;-65
2023/08/05 08:27:00;;;;;;;3.70;2.20;;;;;;;19.82;68.30;101101.66;3618872;39;20080;-66
2023/08/05 08:29:26;;;;;;;2.90;2.33;;;;;;;19.81;66.91;101113.56;3618109;39;20619;-66
2023/08/05 08:31:51;;;;;;;2.88;2.30;;;;;;;19.81;67.60;101110.81;3620009;39;20397;-66
2023/08/05 08:34:17;;;;;;;3.22;2.30;;;;;;;19.92;66.86;101104.34;3617409;39;20142;-66
2023/08/05 08:36:42;;;;;;;4.95;2.50;;;;;;;20.01;69.65;101070.69;3616476;39;20104;-66
2023/08/05 08:39:08;;;;;;;4.18;2.47;;;;;;;20.26;67.20;101087.38;3615612;39;20057;-65
2023/08/05 08:41:44;;;;;;;2.85;2.60;;;;;;;20.28;66.40;101056.19;3614456;39;20062;-66
2023/08/05 08:44:11;;;;;;;3.90;2.25;;;;;;;20.51;66.24;101062.13;3615381;39;20158;-65
2023/08/05 08:46:38;;;;;;;5.53;2.60;;;;;;;20.74;66.38;101068.03;3614532;39;20054;-66
2023/08/05 08:49:04;;;;;;;2.50;2.30;;;;;;;20.69;63.34;101014.84;3617496;39;20047;-66
2023/08/05 08:51:32;;;;;;;3.42;2.40;;;;;;;21.00;61.70;101062.63;3610728;39;20238;-65
2023/08/05 08:54:02;;;;;;;2.58;2.10;;;;;;;20.95;62.18;101056.75;3616124;39;20091;-66
2023/08/05 08:56:28;;;;;;;3.25;2.17;;;;;;;20.96;62.71;101061.19;3614725;39;20075;-65
2023/08/05 08:58:54;;;;;;;8.50;2.20;;;;;;;21.04;63.35;101055.81;3616768;39;20104;-65
2023/08/05 09:01:21;;;;;;;1.95;1.83;;;;;;;21.09;61.43;101058.94;3617643;39;20062;-65
2023/08/05 09:03:52;;;;;;;3.50;2.10;;;;;;;21.06;61.74;101047.47;3620291;39;20042;-65
2023/08/05 09:06:23;;;;;;;4.75;2.05;;;;;;;21.00;62.06;101048.97;3617753;39;20082;-65
2023/08/05 09:08:50;;;;;;;5.03;2.38;;;;;;;20.98;61.90;101047.41;3614541;39;20058;-65
2023/08/05 09:11:16;;;;;;;2.78;2.13;;;;;;;20.87;62.90;101032.09;3614472;39;20078;-65
2023/08/05 09:13:43;;;;;;;2.70;2.05;;;;;;;20.81;62.52;101035.47;3615814;39;20120;-65
2023/08/05 09:16:15;;;;;;;2.22;2.03;;;;;;;20.66;62.20;101032.41;3619783;39;20123;-65
2023/08/05 09:18:54;;;;;;;4.57;2.13;;;;;;;20.46;63.89;101020.75;3618640;39;20062;-65
2023/08/05 09:21:28;;;;;;;5.25;1.90;;;;;;;20.34;64.56;101017.34;3604572;39;20657;-65
2023/08/05 09:23:58;;;;;;;2.72;2.30;;;;;;;20.26;64.76;101013.66;3612824;39;20365;-65
2023/08/05 09:26:32;;;;;;;4.68;2.42;;;;;;;20.18;66.78;101003.53;3617440;39;20106;-65
2023/08/05 09:28:59;;;;;;;3.05;2.70;;;;;;;20.11;65.70;101005.16;3619110;39;20103;-65
2023/08/05 09:31:25;;;;;;;3.05;2.75;;;;;;;20.08;66.62;101000.84;3615619;39;20082;-65
2023/08/05 09:33:52;;;;;;;3.90;2.92;;;;;;;20.10;66.33;100998.81;3613840;39;20050;-65
2023/08/05 09:36:25;;;;;;;5.18;3.10;;;;;;;20.17;66.71;100993.59;3613976;39;20059;-65
2023/08/05 09:39:05;;;;;;;4.47;3.22;;;;;;;20.12;66.29;100987.75;3614195;39;20119;-65
2023/08/05 09:41:34;;;;;;;3.42;3.00;;;;;;;20.16;66.41;100986.44;3617988;39;20086;-65
2023/08/05 09:44:00;;;;;;;4.82;3.40;;;;;;;20.21;65.62;100988.72;3618717;39;20042;-64
2023/08/05 09:46:42;;;;;;;2.88;2.65;;;;;;;20.20;65.38;100992.44;3618393;39;20066;-66
2023/08/05 09:49:12;;;;;;;5.07;2.92;;;;;;;20.18;65.50;100982.53;3614846;39;20055;-66
2023/08/05 09:51:42;;;;;;;5.63;2.70;;;;;;;20.21;65.40;100980.53;3616637;39;20055;-66
2023/08/05 09:54:14;;;;;;;4.40;2.72;;;;;;;20.22;66.07;100976.78;3615792;39;20046;-66
2023/08/05 09:56:40;;;;;;;4.17;2.30;;;;;;;20.20;65.53;100973.34;3615124;39;20386;-66
2023/08/05 09:59:08;;;;;;;3.15;2.50;;;;;;;20.11;65.45;100962.34;3614845;39;20043;-65
2023/08/05 10:01:36;;;;;;;6.80;2.83;;;;;;;20.07;64.89;100969.09;3616343;39;20047;-66
2023/08/05 10:04:03;;;;;;;3.50;2.90;;;;;;;19.99;64.82;100958.09;3605975;39;20054;-66
2023/08/05 10:06:31;;;;;;;4.90;2.97;;;;;;;20.04;65.75;100961.22;3611681;39;20054;-66
2023/08/05 10:08:57;;;;;;;3.15;2.55;;;;;;;20.18;66.41;100963.44;3618313;39;20482;-65
2023/08/05 10:11:25;;;;;;;3.53;2.53;;;;;;;20.19;64.94;100953.38;3617611;39;20123;-65
2023/08/05 10:13:53;;;;;;;5.50;2.50;;;;;;;20.10;65.60;100954.28;3615593;39;20047;-63
2023/08/05 10:16:21;;;;;;;4.78;2.88;;;;;;;20.03;67.31;100958.66;3615354;39;20066;-66
2023/08/05 10:18:48;;;;;;;5.22;3.33;;;;;;;19.86;68.35;100943.97;3616007;39;20059;-66
2023/08/05 10:21:37;;;;;;;4.45;3.25;;;;;;;19.68;70.22;100958.41;3616929;39;20054;-67
2023/08/05 10:24:04;;;;;;;6.32;3.58;;;;;;;19.38;72.04;100910.44;3614431;39;20062;-67
2023/08/05 10:27:09;;;;;;;5.78;4.00;;;;;;;19.49;73.82;100942.94;3606311;39;20058;-67
2023/08/05 10:29:52;;;;;;;4.40;4.00;;;;;;;19.41;75.22;100942.84;3616169;39;20046;-67
2023/08/05 10:32:31;;;;;;;5.65;4.22;;;;;;;19.39;75.28;100941.28;3618483;39;20478;-66
2023/08/05 10:35:40;;;;;;;4.75;4.25;;;;;;;19.27;74.95;100926.97;3618188;39;20054;-67
2023/08/05 10:38:23;;;;;;;4.80;4.10;;;;;;;19.39;74.14;100933.09;3585214;40;20055;-66
2023/08/05 10:41:00;;;;;;;4.57;3.95;;;;;;;19.51;73.32;100934.63;3615536;39;20046;-67
2023/08/05 10:43:30;;;;;;;5.07;4.00;;;;;;;19.49;71.10;100928.47;3615659;39;20059;-68
2023/08/05 10:46:00;;;;;;;4.55;3.85;;;;;;;19.56;71.05;100923.25;3616634;39;20050;-68
2023/08/05 10:48:42;;;;;;;4.57;3.70;;;;;;;19.65;70.95;100923.25;3616971;39;20346;-68
2023/08/05 10:51:14;;;;;;;4.85;3.72;;;;;;;19.74;70.82;100926.94;3617954;39;20050;-69
2023/08/05 10:53:44;;;;;;;5.30;3.53;;;;;;;19.82;69.69;100934.34;3619967;39;20402;-68
2023/08/05 10:56:14;;;;;;;4.30;3.10;;;;;;;19.85;69.90;100924.03;3613056;39;20243;-67
2023/08/05 10:58:50;;;;;;;4.80;3.25;;;;;;;19.85;66.85;100934.06;3612063;39;20334;-67
2023/08/05 11:01:17;;;;;;;4.38;3.33;;;;;;;19.66;66.69;100894.97;3614801;39;20065;-66
2023/08/05 11:03:47;;;;;;;3.92;3.22;;;;;;;19.86;67.33;100912.09;3615239;39;20050;-66
2023/08/05 11:06:20;;;;;;;3.25;2.95;;;;;;;19.43;67.58;100839.09;3614569;39;20054;-66
2023/08/05 11:08:46;;;;;;;5.57;2.80;;;;;;;19.99;67.67;100917.19;3617482;39;20051;-66
2023/08/05 11:11:13;;;;;;;4.13;3.10;;;;;;;20.03;66.95;100915.84;3616501;39;20087;-66
2023/08/05 11:13:47;;;;;;;4.25;2.50;;;;;;;19.98;65.52;100910.00;3613994;39;20058;-66
2023/08/05 11:16:18;;;;;;;4.03;3.13;;;;;;;19.99;65.29;100908.13;3614987;39;20046;-66
2023/08/05 11:18:55;;;;;;;4.25;2.80;;;;;;;19.94;65.70;100916.75;3614385;39;20123;-66
2023/08/05 11:21:22;;;;;;;4.25;2.90;;;;;;;19.89;65.95;100905.47;3615812;39;20054;-66
2023/08/05 11:23:48;;;;;;;3.88;3.10;;;;;;;19.80;65.68;100885.41;3612500;39;20054;-66